sensor_id;sensor_type;location;lat;lon;timestamp;P1;durP1;ratioP1;P2;durP2;ratioP2
58017;SDS011;43810;50.860;19.226;2023-02-19T00:00:59;29.75;;;12.27;;
58017;SDS011;43810;50.860;19.226;2023-02-19T00:03:42;16.15;;;8.65;;
58017;SDS011;43810;50.860;19.226;2023-02-19T00:06:12;14.18;;;7.00;;
58017;SDS011;43810;50.860;19.226;2023-02-19T00:08:38;17.88;;;7.30;;
58017;SDS011;43810;50.860;19.226;2023-02-19T00:11:05;15.52;;;7.80;;
58017;SDS011;43810;50.860;19.226;2023-02-19T00:13:39;11.32;;;6.07;;
58017;SDS011;43810;50.860;19.226;2023-02-19T00:16:08;12.73;;;6.10;;
58017;SDS011;43810;50.860;19.226;2023-02-19T00:18:36;11.15;;;5.47;;
58017;SDS011;43810;50.860;19.226;2023-02-19T00:21:02;9.35;;;5.60;;
58017;SDS011;43810;50.860;19.226;2023-02-19T00:23:28;9.23;;;5.38;;
58017;SDS011;43810;50.860;19.226;2023-02-19T00:25:54;11.52;;;5.82;;
58017;SDS011;43810;50.860;19.226;2023-02-19T00:28:20;11.65;;;6.18;;
58017;SDS011;43810;50.860;19.226;2023-02-19T00:30:47;11.93;;;6.05;;
58017;SDS011;43810;50.860;19.226;2023-02-19T00:33:13;14.68;;;6.88;;
58017;SDS011;43810;50.860;19.226;2023-02-19T00:35:40;14.30;;;6.88;;
58017;SDS011;43810;50.860;19.226;2023-02-19T00:38:05;18.67;;;7.47;;
58017;SDS011;43810;50.860;19.226;2023-02-19T00:40:31;19.58;;;8.95;;
58017;SDS011;43810;50.860;19.226;2023-02-19T00:42:57;18.23;;;8.13;;
58017;SDS011;43810;50.860;19.226;2023-02-19T00:45:23;17.85;;;8.65;;
58017;SDS011;43810;50.860;19.226;2023-02-19T00:47:49;21.13;;;10.43;;
58017;SDS011;43810;50.860;19.226;2023-02-19T00:50:14;21.13;;;9.55;;
58017;SDS011;43810;50.860;19.226;2023-02-19T00:52:40;19.60;;;9.55;;
58017;SDS011;43810;50.860;19.226;2023-02-19T00:55:07;19.90;;;10.15;;
58017;SDS011;43810;50.860;19.226;2023-02-19T00:57:32;22.17;;;10.60;;
58017;SDS011;43810;50.860;19.226;2023-02-19T00:59:58;25.83;;;10.57;;
58017;SDS011;43810;50.860;19.226;2023-02-19T01:02:24;20.23;;;9.75;;
58017;SDS011;43810;50.860;19.226;2023-02-19T01:04:51;23.63;;;10.25;;
58017;SDS011;43810;50.860;19.226;2023-02-19T01:07:17;22.77;;;10.85;;
58017;SDS011;43810;50.860;19.226;2023-02-19T01:09:43;22.50;;;10.70;;
58017;SDS011;43810;50.860;19.226;2023-02-19T01:12:09;22.27;;;10.13;;
58017;SDS011;43810;50.860;19.226;2023-02-19T01:14:35;22.65;;;10.15;;
58017;SDS011;43810;50.860;19.226;2023-02-19T01:17:01;20.73;;;9.88;;
58017;SDS011;43810;50.860;19.226;2023-02-19T01:19:27;23.10;;;10.20;;
58017;SDS011;43810;50.860;19.226;2023-02-19T01:21:52;20.83;;;10.13;;
58017;SDS011;43810;50.860;19.226;2023-02-19T01:24:18;20.27;;;11.57;;
58017;SDS011;43810;50.860;19.226;2023-02-19T01:26:44;25.05;;;11.65;;
58017;SDS011;43810;50.860;19.226;2023-02-19T01:29:10;24.27;;;12.45;;
58017;SDS011;43810;50.860;19.226;2023-02-19T01:31:35;25.25;;;12.38;;
58017;SDS011;43810;50.860;19.226;2023-02-19T01:34:03;20.45;;;9.38;;
58017;SDS011;43810;50.860;19.226;2023-02-19T01:36:31;19.50;;;9.80;;
58017;SDS011;43810;50.860;19.226;2023-02-19T01:38:59;25.83;;;9.98;;
58017;SDS011;43810;50.860;19.226;2023-02-19T01:41:29;21.48;;;9.15;;
58017;SDS011;43810;50.860;19.226;2023-02-19T01:46:42;19.98;;;8.70;;
58017;SDS011;43810;50.860;19.226;2023-02-19T01:49:11;20.27;;;9.13;;
58017;SDS011;43810;50.860;19.226;2023-02-19T01:52:45;16.98;;;8.75;;
58017;SDS011;43810;50.860;19.226;2023-02-19T01:54:50;17.67;;;8.00;;
58017;SDS011;43810;50.860;19.226;2023-02-19T01:57:18;20.05;;;9.05;;
58017;SDS011;43810;50.860;19.226;2023-02-19T01:59:48;19.20;;;7.85;;
58017;SDS011;43810;50.860;19.226;2023-02-19T02:02:19;18.10;;;7.82;;
58017;SDS011;43810;50.860;19.226;2023-02-19T02:04:46;16.27;;;8.00;;
58017;SDS011;43810;50.860;19.226;2023-02-19T02:07:12;13.80;;;8.45;;
58017;SDS011;43810;50.860;19.226;2023-02-19T02:09:57;20.33;;;9.68;;
58017;SDS011;43810;50.860;19.226;2023-02-19T02:12:41;14.43;;;7.57;;
58017;SDS011;43810;50.860;19.226;2023-02-19T02:15:08;13.82;;;6.40;;
58017;SDS011;43810;50.860;19.226;2023-02-19T02:31:57;18.77;;;7.80;;
58017;SDS011;43810;50.860;19.226;2023-02-19T02:34:44;19.52;;;8.20;;
58017;SDS011;43810;50.860;19.226;2023-02-19T02:37:17;15.13;;;7.30;;
58017;SDS011;43810;50.860;19.226;2023-02-19T02:39:43;18.80;;;8.15;;
58017;SDS011;43810;50.860;19.226;2023-02-19T02:42:11;16.20;;;8.30;;
58017;SDS011;43810;50.860;19.226;2023-02-19T02:44:56;19.77;;;8.88;;
58017;SDS011;43810;50.860;19.226;2023-02-19T02:47:46;17.67;;;8.35;;
58017;SDS011;43810;50.860;19.226;2023-02-19T02:50:22;20.83;;;8.27;;
58017;SDS011;43810;50.860;19.226;2023-02-19T02:52:57;17.90;;;9.13;;
58017;SDS011;43810;50.860;19.226;2023-02-19T02:55:46;17.08;;;8.63;;
58017;SDS011;43810;50.860;19.226;2023-02-19T02:58:17;14.30;;;7.80;;
58017;SDS011;43810;50.860;19.226;2023-02-19T03:00:45;13.80;;;7.05;;
58017;SDS011;43810;50.860;19.226;2023-02-19T03:03:35;17.90;;;7.78;;
58017;SDS011;43810;50.860;19.226;2023-02-19T03:06:03;14.07;;;6.68;;
58017;SDS011;43810;50.860;19.226;2023-02-19T03:08:44;13.77;;;6.72;;
58017;SDS011;43810;50.860;19.226;2023-02-19T03:11:11;14.30;;;6.68;;
58017;SDS011;43810;50.860;19.226;2023-02-19T03:14:03;17.67;;;6.53;;
58017;SDS011;43810;50.860;19.226;2023-02-19T03:16:54;10.98;;;6.28;;
58017;SDS011;43810;50.860;19.226;2023-02-19T03:19:44;9.00;;;4.72;;
58017;SDS011;43810;50.860;19.226;2023-02-19T03:24:55;8.80;;;4.72;;
58017;SDS011;43810;50.860;19.226;2023-02-19T03:27:48;8.35;;;4.95;;
58017;SDS011;43810;50.860;19.226;2023-02-19T03:30:17;6.60;;;4.13;;
58017;SDS011;43810;50.860;19.226;2023-02-19T03:35:48;8.05;;;4.05;;
58017;SDS011;43810;50.860;19.226;2023-02-19T03:38:22;6.43;;;3.35;;
58017;SDS011;43810;50.860;19.226;2023-02-19T03:40:57;5.72;;;3.72;;
58017;SDS011;43810;50.860;19.226;2023-02-19T03:43:39;7.38;;;3.97;;
58017;SDS011;43810;50.860;19.226;2023-02-19T03:46:14;7.72;;;4.03;;
58017;SDS011;43810;50.860;19.226;2023-02-19T03:51:25;8.13;;;4.30;;
58017;SDS011;43810;50.860;19.226;2023-02-19T03:54:10;7.32;;;3.90;;
58017;SDS011;43810;50.860;19.226;2023-02-19T03:56:50;8.05;;;3.75;;
58017;SDS011;43810;50.860;19.226;2023-02-19T04:02:14;8.00;;;3.95;;
58017;SDS011;43810;50.860;19.226;2023-02-19T04:05:02;8.52;;;4.85;;
58017;SDS011;43810;50.860;19.226;2023-02-19T04:07:35;9.73;;;4.97;;
58017;SDS011;43810;50.860;19.226;2023-02-19T04:10:06;9.68;;;5.35;;
58017;SDS011;43810;50.860;19.226;2023-02-19T04:12:35;9.80;;;4.80;;
58017;SDS011;43810;50.860;19.226;2023-02-19T04:15:09;7.95;;;4.80;;
58017;SDS011;43810;50.860;19.226;2023-02-19T04:17:43;11.07;;;4.75;;
58017;SDS011;43810;50.860;19.226;2023-02-19T04:20:15;7.75;;;4.30;;
58017;SDS011;43810;50.860;19.226;2023-02-19T04:22:44;8.05;;;4.03;;
58017;SDS011;43810;50.860;19.226;2023-02-19T04:25:12;11.52;;;5.05;;
58017;SDS011;43810;50.860;19.226;2023-02-19T04:27:38;7.70;;;4.53;;
58017;SDS011;43810;50.860;19.226;2023-02-19T04:30:05;10.43;;;5.40;;
58017;SDS011;43810;50.860;19.226;2023-02-19T04:32:34;11.10;;;4.97;;
58017;SDS011;43810;50.860;19.226;2023-02-19T04:35:00;11.00;;;5.15;;
58017;SDS011;43810;50.860;19.226;2023-02-19T04:37:26;11.40;;;5.75;;
58017;SDS011;43810;50.860;19.226;2023-02-19T04:39:51;13.52;;;7.38;;
58017;SDS011;43810;50.860;19.226;2023-02-19T04:42:17;10.55;;;6.20;;
58017;SDS011;43810;50.860;19.226;2023-02-19T04:44:43;14.70;;;7.35;;
58017;SDS011;43810;50.860;19.226;2023-02-19T04:47:09;12.18;;;7.75;;
58017;SDS011;43810;50.860;19.226;2023-02-19T04:49:34;14.32;;;8.43;;
58017;SDS011;43810;50.860;19.226;2023-02-19T04:52:00;13.57;;;7.50;;
58017;SDS011;43810;50.860;19.226;2023-02-19T04:54:26;10.65;;;6.85;;
58017;SDS011;43810;50.860;19.226;2023-02-19T04:56:52;12.57;;;7.43;;
58017;SDS011;43810;50.860;19.226;2023-02-19T04:59:17;13.35;;;6.93;;
58017;SDS011;43810;50.860;19.226;2023-02-19T05:01:43;10.30;;;6.47;;
58017;SDS011;43810;50.860;19.226;2023-02-19T05:04:09;13.65;;;7.50;;
58017;SDS011;43810;50.860;19.226;2023-02-19T05:06:35;11.35;;;5.78;;
58017;SDS011;43810;50.860;19.226;2023-02-19T05:09:01;13.02;;;6.45;;
58017;SDS011;43810;50.860;19.226;2023-02-19T05:11:27;13.90;;;7.18;;
58017;SDS011;43810;50.860;19.226;2023-02-19T05:13:53;11.73;;;6.90;;
58017;SDS011;43810;50.860;19.226;2023-02-19T05:16:20;13.93;;;8.18;;
58017;SDS011;43810;50.860;19.226;2023-02-19T05:18:45;9.70;;;7.22;;
58017;SDS011;43810;50.860;19.226;2023-02-19T05:21:11;13.02;;;8.15;;
58017;SDS011;43810;50.860;19.226;2023-02-19T05:23:37;15.48;;;9.27;;
58017;SDS011;43810;50.860;19.226;2023-02-19T05:26:06;17.98;;;8.95;;
58017;SDS011;43810;50.860;19.226;2023-02-19T05:28:34;13.23;;;8.00;;
58017;SDS011;43810;50.860;19.226;2023-02-19T05:31:03;13.43;;;6.75;;
58017;SDS011;43810;50.860;19.226;2023-02-19T05:33:30;14.18;;;7.38;;
58017;SDS011;43810;50.860;19.226;2023-02-19T05:35:57;11.40;;;7.05;;
58017;SDS011;43810;50.860;19.226;2023-02-19T05:38:22;9.93;;;6.38;;
58017;SDS011;43810;50.860;19.226;2023-02-19T05:40:49;10.68;;;6.47;;
58017;SDS011;43810;50.860;19.226;2023-02-19T05:43:15;9.25;;;5.63;;
58017;SDS011;43810;50.860;19.226;2023-02-19T05:45:42;11.18;;;6.05;;
58017;SDS011;43810;50.860;19.226;2023-02-19T05:48:09;9.15;;;5.03;;
58017;SDS011;43810;50.860;19.226;2023-02-19T05:50:36;10.60;;;5.30;;
58017;SDS011;43810;50.860;19.226;2023-02-19T05:53:02;7.43;;;4.53;;
58017;SDS011;43810;50.860;19.226;2023-02-19T05:55:32;9.73;;;5.68;;
58017;SDS011;43810;50.860;19.226;2023-02-19T05:57:59;7.85;;;4.60;;
58017;SDS011;43810;50.860;19.226;2023-02-19T06:00:25;8.80;;;4.70;;
58017;SDS011;43810;50.860;19.226;2023-02-19T06:02:52;9.60;;;5.18;;
58017;SDS011;43810;50.860;19.226;2023-02-19T06:05:19;11.05;;;4.93;;
58017;SDS011;43810;50.860;19.226;2023-02-19T06:07:44;8.23;;;5.18;;
58017;SDS011;43810;50.860;19.226;2023-02-19T06:10:11;7.55;;;4.95;;
58017;SDS011;43810;50.860;19.226;2023-02-19T06:12:37;7.65;;;4.90;;
58017;SDS011;43810;50.860;19.226;2023-02-19T06:15:04;11.88;;;5.72;;
58017;SDS011;43810;50.860;19.226;2023-02-19T06:17:31;7.97;;;4.65;;
58017;SDS011;43810;50.860;19.226;2023-02-19T06:19:57;10.98;;;4.88;;
58017;SDS011;43810;50.860;19.226;2023-02-19T06:22:23;8.82;;;3.90;;
58017;SDS011;43810;50.860;19.226;2023-02-19T06:24:49;7.93;;;4.95;;
58017;SDS011;43810;50.860;19.226;2023-02-19T06:27:15;10.13;;;5.05;;
58017;SDS011;43810;50.860;19.226;2023-02-19T06:29:41;11.70;;;5.32;;
58017;SDS011;43810;50.860;19.226;2023-02-19T06:32:07;16.08;;;6.63;;
58017;SDS011;43810;50.860;19.226;2023-02-19T06:34:33;13.52;;;6.43;;
58017;SDS011;43810;50.860;19.226;2023-02-19T06:37:00;14.07;;;5.53;;
58017;SDS011;43810;50.860;19.226;2023-02-19T06:39:27;11.30;;;6.25;;
58017;SDS011;43810;50.860;19.226;2023-02-19T06:41:56;13.35;;;6.53;;
58017;SDS011;43810;50.860;19.226;2023-02-19T06:44:23;12.95;;;6.10;;
58017;SDS011;43810;50.860;19.226;2023-02-19T06:46:49;12.48;;;6.13;;
58017;SDS011;43810;50.860;19.226;2023-02-19T06:49:16;10.60;;;6.15;;
58017;SDS011;43810;50.860;19.226;2023-02-19T06:51:42;11.05;;;6.18;;
58017;SDS011;43810;50.860;19.226;2023-02-19T06:54:08;12.00;;;5.93;;
58017;SDS011;43810;50.860;19.226;2023-02-19T06:56:34;8.52;;;4.93;;
58017;SDS011;43810;50.860;19.226;2023-02-19T06:59:05;11.48;;;5.55;;
58017;SDS011;43810;50.860;19.226;2023-02-19T07:01:33;16.10;;;6.53;;
58017;SDS011;43810;50.860;19.226;2023-02-19T07:04:00;14.85;;;7.88;;
58017;SDS011;43810;50.860;19.226;2023-02-19T07:06:26;14.75;;;6.70;;
58017;SDS011;43810;50.860;19.226;2023-02-19T07:08:54;16.42;;;7.20;;
58017;SDS011;43810;50.860;19.226;2023-02-19T07:11:20;12.48;;;5.93;;
58017;SDS011;43810;50.860;19.226;2023-02-19T07:13:46;13.57;;;6.20;;
58017;SDS011;43810;50.860;19.226;2023-02-19T07:16:12;14.40;;;7.18;;
58017;SDS011;43810;50.860;19.226;2023-02-19T07:18:39;12.77;;;6.60;;
58017;SDS011;43810;50.860;19.226;2023-02-19T07:21:06;18.33;;;8.40;;
58017;SDS011;43810;50.860;19.226;2023-02-19T07:23:35;16.52;;;7.88;;
58017;SDS011;43810;50.860;19.226;2023-02-19T07:26:00;16.25;;;6.45;;
58017;SDS011;43810;50.860;19.226;2023-02-19T07:28:27;21.77;;;8.30;;
58017;SDS011;43810;50.860;19.226;2023-02-19T07:30:52;17.05;;;8.02;;
58017;SDS011;43810;50.860;19.226;2023-02-19T07:33:19;15.13;;;7.88;;
58017;SDS011;43810;50.860;19.226;2023-02-19T07:35:45;16.48;;;7.93;;
58017;SDS011;43810;50.860;19.226;2023-02-19T07:38:14;16.23;;;9.00;;
58017;SDS011;43810;50.860;19.226;2023-02-19T07:40:53;18.13;;;7.18;;
58017;SDS011;43810;50.860;19.226;2023-02-19T07:43:20;11.63;;;5.82;;
58017;SDS011;43810;50.860;19.226;2023-02-19T07:45:47;12.00;;;6.85;;
58017;SDS011;43810;50.860;19.226;2023-02-19T07:48:13;10.52;;;6.50;;
58017;SDS011;43810;50.860;19.226;2023-02-19T07:50:39;11.27;;;6.03;;
58017;SDS011;43810;50.860;19.226;2023-02-19T07:53:05;10.40;;;4.93;;
58017;SDS011;43810;50.860;19.226;2023-02-19T07:55:31;5.43;;;3.80;;
58017;SDS011;43810;50.860;19.226;2023-02-19T07:57:58;8.43;;;4.93;;
58017;SDS011;43810;50.860;19.226;2023-02-19T08:00:25;8.20;;;4.88;;
58017;SDS011;43810;50.860;19.226;2023-02-19T08:02:52;9.13;;;4.78;;
58017;SDS011;43810;50.860;19.226;2023-02-19T08:05:24;6.82;;;3.58;;
58017;SDS011;43810;50.860;19.226;2023-02-19T08:07:51;7.70;;;3.85;;
58017;SDS011;43810;50.860;19.226;2023-02-19T08:10:17;7.85;;;4.43;;
58017;SDS011;43810;50.860;19.226;2023-02-19T08:13:01;9.70;;;4.95;;
58017;SDS011;43810;50.860;19.226;2023-02-19T08:15:45;10.05;;;5.22;;
58017;SDS011;43810;50.860;19.226;2023-02-19T08:18:13;10.90;;;4.95;;
58017;SDS011;43810;50.860;19.226;2023-02-19T08:20:40;11.77;;;5.57;;
58017;SDS011;43810;50.860;19.226;2023-02-19T08:23:07;9.45;;;5.03;;
58017;SDS011;43810;50.860;19.226;2023-02-19T08:25:34;10.07;;;4.13;;
58017;SDS011;43810;50.860;19.226;2023-02-19T08:28:01;6.05;;;3.05;;
58017;SDS011;43810;50.860;19.226;2023-02-19T08:30:27;9.25;;;2.97;;
58017;SDS011;43810;50.860;19.226;2023-02-19T08:32:54;12.02;;;4.43;;
58017;SDS011;43810;50.860;19.226;2023-02-19T08:35:22;9.00;;;3.55;;
58017;SDS011;43810;50.860;19.226;2023-02-19T08:37:48;10.98;;;4.25;;
58017;SDS011;43810;50.860;19.226;2023-02-19T08:40:13;15.75;;;4.90;;
58017;SDS011;43810;50.860;19.226;2023-02-19T08:42:40;11.35;;;4.22;;
58017;SDS011;43810;50.860;19.226;2023-02-19T08:45:05;12.60;;;4.65;;
58017;SDS011;43810;50.860;19.226;2023-02-19T08:47:33;12.68;;;5.38;;
58017;SDS011;43810;50.860;19.226;2023-02-19T08:49:59;9.85;;;4.25;;
58017;SDS011;43810;50.860;19.226;2023-02-19T08:52:26;8.68;;;3.92;;
58017;SDS011;43810;50.860;19.226;2023-02-19T08:54:52;13.05;;;5.20;;
58017;SDS011;43810;50.860;19.226;2023-02-19T08:57:18;12.65;;;5.75;;
58017;SDS011;43810;50.860;19.226;2023-02-19T08:59:44;10.98;;;5.05;;
58017;SDS011;43810;50.860;19.226;2023-02-19T09:02:10;11.13;;;4.75;;
58017;SDS011;43810;50.860;19.226;2023-02-19T09:04:37;9.93;;;3.80;;
58017;SDS011;43810;50.860;19.226;2023-02-19T09:07:04;7.28;;;4.28;;
58017;SDS011;43810;50.860;19.226;2023-02-19T09:09:32;12.02;;;5.22;;
58017;SDS011;43810;50.860;19.226;2023-02-19T09:11:58;10.02;;;4.68;;
58017;SDS011;43810;50.860;19.226;2023-02-19T09:14:24;11.73;;;4.32;;
58017;SDS011;43810;50.860;19.226;2023-02-19T09:16:50;9.98;;;4.47;;
58017;SDS011;43810;50.860;19.226;2023-02-19T09:19:16;9.73;;;4.65;;
58017;SDS011;43810;50.860;19.226;2023-02-19T09:21:42;13.20;;;4.75;;
58017;SDS011;43810;50.860;19.226;2023-02-19T09:24:08;12.13;;;5.75;;
58017;SDS011;43810;50.860;19.226;2023-02-19T09:26:34;9.40;;;5.07;;
58017;SDS011;43810;50.860;19.226;2023-02-19T09:29:00;9.20;;;3.50;;
58017;SDS011;43810;50.860;19.226;2023-02-19T09:31:26;9.88;;;4.30;;
58017;SDS011;43810;50.860;19.226;2023-02-19T09:33:52;13.82;;;4.82;;
58017;SDS011;43810;50.860;19.226;2023-02-19T09:36:18;16.35;;;6.20;;
58017;SDS011;43810;50.860;19.226;2023-02-19T09:38:44;17.20;;;6.05;;
58017;SDS011;43810;50.860;19.226;2023-02-19T09:41:29;10.55;;;4.50;;
58017;SDS011;43810;50.860;19.226;2023-02-19T09:43:57;9.35;;;4.10;;
58017;SDS011;43810;50.860;19.226;2023-02-19T09:49:11;12.73;;;5.40;;
58017;SDS011;43810;50.860;19.226;2023-02-19T09:51:40;13.43;;;6.60;;
58017;SDS011;43810;50.860;19.226;2023-02-19T09:54:43;9.43;;;3.88;;
58017;SDS011;43810;50.860;19.226;2023-02-19T09:57:03;10.53;;;4.27;;
58017;SDS011;43810;50.860;19.226;2023-02-19T09:59:30;9.80;;;5.00;;
58017;SDS011;43810;50.860;19.226;2023-02-19T10:02:11;13.07;;;4.82;;
58017;SDS011;43810;50.860;19.226;2023-02-19T10:04:41;11.82;;;5.35;;
58017;SDS011;43810;50.860;19.226;2023-02-19T10:07:12;16.80;;;4.80;;
58017;SDS011;43810;50.860;19.226;2023-02-19T10:10:00;19.00;;;5.50;;
58017;SDS011;43810;50.860;19.226;2023-02-19T10:12:38;12.20;;;3.75;;
58017;SDS011;43810;50.860;19.226;2023-02-19T10:15:17;9.15;;;3.10;;
58017;SDS011;43810;50.860;19.226;2023-02-19T10:17:51;5.97;;;3.83;;
58017;SDS011;43810;50.860;19.226;2023-02-19T10:20:19;17.30;;;3.42;;
58017;SDS011;43810;50.860;19.226;2023-02-19T10:22:54;11.63;;;2.88;;
58017;SDS011;43810;50.860;19.226;2023-02-19T10:25:27;17.55;;;8.48;;
58017;SDS011;43810;50.860;19.226;2023-02-19T10:27:56;22.30;;;9.50;;
58017;SDS011;43810;50.860;19.226;2023-02-19T10:30:28;20.83;;;8.85;;
58017;SDS011;43810;50.860;19.226;2023-02-19T10:32:57;28.17;;;13.25;;
58017;SDS011;43810;50.860;19.226;2023-02-19T10:35:35;176.82;;;58.53;;
58017;SDS011;43810;50.860;19.226;2023-02-19T10:38:03;88.10;;;38.85;;
58017;SDS011;43810;50.860;19.226;2023-02-19T10:40:31;30.00;;;13.73;;
58017;SDS011;43810;50.860;19.226;2023-02-19T10:42:59;16.40;;;8.82;;
58017;SDS011;43810;50.860;19.226;2023-02-19T10:45:37;35.03;;;15.85;;
58017;SDS011;43810;50.860;19.226;2023-02-19T10:48:06;32.60;;;12.95;;
58017;SDS011;43810;50.860;19.226;2023-02-19T10:50:45;114.70;;;39.92;;
58017;SDS011;43810;50.860;19.226;2023-02-19T10:53:23;95.20;;;38.70;;
58017;SDS011;43810;50.860;19.226;2023-02-19T10:56:26;73.70;;;28.07;;
58017;SDS011;43810;50.860;19.226;2023-02-19T10:58:53;28.42;;;10.90;;
58017;SDS011;43810;50.860;19.226;2023-02-19T11:01:22;46.20;;;25.70;;
58017;SDS011;43810;50.860;19.226;2023-02-19T11:03:52;29.80;;;14.27;;
58017;SDS011;43810;50.860;19.226;2023-02-19T11:06:42;21.08;;;10.82;;
58017;SDS011;43810;50.860;19.226;2023-02-19T11:09:29;18.88;;;7.35;;
58017;SDS011;43810;50.860;19.226;2023-02-19T11:12:02;43.90;;;22.40;;
58017;SDS011;43810;50.860;19.226;2023-02-19T11:14:30;24.13;;;13.32;;
58017;SDS011;43810;50.860;19.226;2023-02-19T11:16:58;24.13;;;13.63;;
58017;SDS011;43810;50.860;19.226;2023-02-19T11:22:48;13.50;;;6.63;;
58017;SDS011;43810;50.860;19.226;2023-02-19T11:24:54;12.38;;;5.40;;
58017;SDS011;43810;50.860;19.226;2023-02-19T11:27:25;11.07;;;5.30;;
58017;SDS011;43810;50.860;19.226;2023-02-19T11:29:51;23.90;;;9.40;;
58017;SDS011;43810;50.860;19.226;2023-02-19T11:32:27;17.17;;;9.15;;
58017;SDS011;43810;50.860;19.226;2023-02-19T11:35:15;15.95;;;7.60;;
58017;SDS011;43810;50.860;19.226;2023-02-19T11:37:59;26.00;;;13.25;;
58017;SDS011;43810;50.860;19.226;2023-02-19T11:40:49;19.80;;;6.85;;
58017;SDS011;43810;50.860;19.226;2023-02-19T11:46:36;14.68;;;7.47;;
58017;SDS011;43810;50.860;19.226;2023-02-19T11:49:14;14.20;;;9.07;;
58017;SDS011;43810;50.860;19.226;2023-02-19T12:16:21;21.52;;;12.55;;
58017;SDS011;43810;50.860;19.226;2023-02-19T12:19:12;15.35;;;7.32;;
58017;SDS011;43810;50.860;19.226;2023-02-19T12:33:14;17.48;;;8.73;;
58017;SDS011;43810;50.860;19.226;2023-02-19T12:38:21;33.17;;;15.98;;
58017;SDS011;43810;50.860;19.226;2023-02-19T12:43:34;17.50;;;9.00;;
58017;SDS011;43810;50.860;19.226;2023-02-19T12:46:06;16.80;;;7.15;;
58017;SDS011;43810;50.860;19.226;2023-02-19T12:51:17;17.25;;;9.13;;
58017;SDS011;43810;50.860;19.226;2023-02-19T12:53:51;23.80;;;12.30;;
58017;SDS011;43810;50.860;19.226;2023-02-19T12:56:23;18.35;;;9.00;;
58017;SDS011;43810;50.860;19.226;2023-02-19T12:58:54;34.88;;;20.20;;
58017;SDS011;43810;50.860;19.226;2023-02-19T13:01:31;16.52;;;9.05;;
58017;SDS011;43810;50.860;19.226;2023-02-19T13:06:41;19.77;;;10.45;;
58017;SDS011;43810;50.860;19.226;2023-02-19T13:09:13;17.48;;;8.25;;
58017;SDS011;43810;50.860;19.226;2023-02-19T13:11:52;23.20;;;11.25;;
58017;SDS011;43810;50.860;19.226;2023-02-19T13:17:05;15.25;;;8.73;;
58017;SDS011;43810;50.860;19.226;2023-02-19T13:19:41;15.65;;;6.63;;
58017;SDS011;43810;50.860;19.226;2023-02-19T13:22:18;13.63;;;7.20;;
58017;SDS011;43810;50.860;19.226;2023-02-19T13:25:19;16.02;;;8.73;;
58017;SDS011;43810;50.860;19.226;2023-02-19T13:27:54;13.52;;;7.15;;
58017;SDS011;43810;50.860;19.226;2023-02-19T13:33:16;16.80;;;8.98;;
58017;SDS011;43810;50.860;19.226;2023-02-19T13:38:31;10.45;;;4.97;;
58017;SDS011;43810;50.860;19.226;2023-02-19T13:41:01;16.38;;;5.90;;
58017;SDS011;43810;50.860;19.226;2023-02-19T13:43:29;12.30;;;8.20;;
58017;SDS011;43810;50.860;19.226;2023-02-19T13:46:06;13.65;;;8.30;;
58017;SDS011;43810;50.860;19.226;2023-02-19T13:48:37;17.02;;;7.82;;
58017;SDS011;43810;50.860;19.226;2023-02-19T14:14:41;15.23;;;7.10;;
58017;SDS011;43810;50.860;19.226;2023-02-19T14:22:46;48.20;;;18.73;;
58017;SDS011;43810;50.860;19.226;2023-02-19T14:33:38;23.73;;;11.10;;
58017;SDS011;43810;50.860;19.226;2023-02-19T14:36:20;54.38;;;24.08;;
58017;SDS011;43810;50.860;19.226;2023-02-19T14:41:39;27.75;;;12.35;;
58017;SDS011;43810;50.860;19.226;2023-02-19T14:44:15;32.67;;;14.73;;
58017;SDS011;43810;50.860;19.226;2023-02-19T14:47:10;38.25;;;16.88;;
58017;SDS011;43810;50.860;19.226;2023-02-19T14:49:40;35.70;;;16.92;;
58017;SDS011;43810;50.860;19.226;2023-02-19T14:52:29;43.30;;;18.73;;
58017;SDS011;43810;50.860;19.226;2023-02-19T14:57:40;25.95;;;9.55;;
58017;SDS011;43810;50.860;19.226;2023-02-19T15:00:26;26.30;;;13.18;;
58017;SDS011;43810;50.860;19.226;2023-02-19T15:02:55;40.22;;;15.20;;
58017;SDS011;43810;50.860;19.226;2023-02-19T15:05:25;23.10;;;10.68;;
58017;SDS011;43810;50.860;19.226;2023-02-19T15:07:59;13.57;;;6.75;;
58017;SDS011;43810;50.860;19.226;2023-02-19T15:10:29;47.70;;;20.35;;
58017;SDS011;43810;50.860;19.226;2023-02-19T15:12:58;24.08;;;9.88;;
58017;SDS011;43810;50.860;19.226;2023-02-19T15:15:29;34.47;;;14.93;;
58017;SDS011;43810;50.860;19.226;2023-02-19T15:17:58;24.98;;;11.18;;
58017;SDS011;43810;50.860;19.226;2023-02-19T15:20:27;20.85;;;9.60;;
58017;SDS011;43810;50.860;19.226;2023-02-19T15:22:56;46.53;;;19.08;;
58017;SDS011;43810;50.860;19.226;2023-02-19T15:25:25;26.35;;;11.90;;
58017;SDS011;43810;50.860;19.226;2023-02-19T15:33:26;33.33;;;14.00;;
58017;SDS011;43810;50.860;19.226;2023-02-19T15:35:53;34.72;;;13.88;;
58017;SDS011;43810;50.860;19.226;2023-02-19T15:38:21;35.17;;;14.10;;
58017;SDS011;43810;50.860;19.226;2023-02-19T15:40:48;51.03;;;19.63;;
58017;SDS011;43810;50.860;19.226;2023-02-19T15:43:19;28.75;;;10.45;;
58017;SDS011;43810;50.860;19.226;2023-02-19T15:45:50;54.28;;;20.50;;
58017;SDS011;43810;50.860;19.226;2023-02-19T15:48:24;84.70;;;30.65;;
58017;SDS011;43810;50.860;19.226;2023-02-19T15:50:58;50.30;;;22.08;;
58017;SDS011;43810;50.860;19.226;2023-02-19T15:53:33;38.90;;;18.13;;
58017;SDS011;43810;50.860;19.226;2023-02-19T15:56:08;27.20;;;14.43;;
58017;SDS011;43810;50.860;19.226;2023-02-19T15:58:43;15.13;;;8.15;;
58017;SDS011;43810;50.860;19.226;2023-02-19T16:01:28;22.02;;;10.35;;
58017;SDS011;43810;50.860;19.226;2023-02-19T16:03:57;27.65;;;14.20;;
58017;SDS011;43810;50.860;19.226;2023-02-19T16:06:23;39.17;;;16.23;;
58017;SDS011;43810;50.860;19.226;2023-02-19T16:16:49;28.27;;;13.40;;
58017;SDS011;43810;50.860;19.226;2023-02-19T16:19:22;15.20;;;7.15;;
58017;SDS011;43810;50.860;19.226;2023-02-19T16:21:50;74.50;;;30.02;;
58017;SDS011;43810;50.860;19.226;2023-02-19T16:25:04;37.13;;;16.42;;
58017;SDS011;43810;50.860;19.226;2023-02-19T16:27:10;43.33;;;18.95;;
58017;SDS011;43810;50.860;19.226;2023-02-19T16:29:50;29.25;;;11.32;;
58017;SDS011;43810;50.860;19.226;2023-02-19T16:32:16;19.27;;;9.65;;
58017;SDS011;43810;50.860;19.226;2023-02-19T16:34:43;37.70;;;18.90;;
58017;SDS011;43810;50.860;19.226;2023-02-19T16:45:14;27.23;;;12.50;;
58017;SDS011;43810;50.860;19.226;2023-02-19T16:47:41;36.83;;;17.35;;
58017;SDS011;43810;50.860;19.226;2023-02-19T16:50:19;13.27;;;5.57;;
58017;SDS011;43810;50.860;19.226;2023-02-19T16:55:17;45.95;;;20.13;;
58017;SDS011;43810;50.860;19.226;2023-02-19T16:57:43;17.45;;;6.15;;
58017;SDS011;43810;50.860;19.226;2023-02-19T17:00:19;28.25;;;13.75;;
58017;SDS011;43810;50.860;19.226;2023-02-19T17:02:46;20.00;;;8.13;;
58017;SDS011;43810;50.860;19.226;2023-02-19T17:05:14;20.15;;;10.68;;
58017;SDS011;43810;50.860;19.226;2023-02-19T17:07:40;20.45;;;6.57;;
58017;SDS011;43810;50.860;19.226;2023-02-19T17:10:07;24.98;;;9.40;;
58017;SDS011;43810;50.860;19.226;2023-02-19T17:12:34;22.25;;;11.05;;
58017;SDS011;43810;50.860;19.226;2023-02-19T17:15:00;25.27;;;11.73;;
58017;SDS011;43810;50.860;19.226;2023-02-19T17:17:25;22.73;;;10.95;;
58017;SDS011;43810;50.860;19.226;2023-02-19T17:19:51;14.95;;;7.15;;